createdAt,value
2023-02-16T00:11:20.079Z,78.1
2023-02-16T00:26:54.435Z,79.7
2023-02-16T00:42:28.949Z,81.5
2023-02-16T00:58:03.269Z,81.2
2023-02-16T01:13:37.590Z,80.8
2023-02-16T01:29:12.045Z,80.7
2023-02-16T01:44:46.394Z,82.1
2023-02-16T02:00:20.924Z,81.9
2023-02-16T02:15:55.473Z,83.7
2023-02-16T02:31:31.034Z,84
2023-02-16T02:47:05.824Z,84.7
2023-02-16T03:02:40.236Z,86.1
2023-02-16T03:18:14.706Z,84.7
2023-02-16T03:33:49.032Z,84.3
2023-02-16T03:49:23.399Z,85.4
2023-02-16T04:04:57.869Z,88
2023-02-16T04:20:32.322Z,84.5
2023-02-16T04:36:06.678Z,85.5
2023-02-16T04:51:40.947Z,86.4
2023-02-16T05:07:15.304Z,85.9
2023-02-16T05:22:49.666Z,86.9
2023-02-16T05:38:23.953Z,89.2
2023-02-16T05:53:58.422Z,88.3
2023-02-16T06:09:32.806Z,88.9
2023-02-16T06:25:07.139Z,91.1
2023-02-16T06:40:41.512Z,93.7
2023-02-16T06:56:15.996Z,90.7
2023-02-16T07:11:50.428Z,90.3
2023-02-16T07:27:24.737Z,86.4
2023-02-16T07:42:59.177Z,85.8
2023-02-16T07:58:33.733Z,85.4
2023-02-16T08:14:08.194Z,82.6
2023-02-16T08:29:42.701Z,83.4
2023-02-16T08:45:17.280Z,82.4
2023-02-16T09:00:51.957Z,80.9
2023-02-16T09:16:26.594Z,79.4
2023-02-16T09:32:01.505Z,78.2
2023-02-16T09:47:36.165Z,77.3
2023-02-16T10:03:10.797Z,75.7
2023-02-16T10:18:45.323Z,72
2023-02-16T10:34:23.270Z,69
2023-02-16T10:49:57.927Z,67.1
2023-02-16T11:05:32.473Z,64
2023-02-16T11:21:07.938Z,62.5
2023-02-16T11:36:42.497Z,57
2023-02-16T11:52:16.947Z,54.3
2023-02-16T12:07:51.402Z,50.4
2023-02-16T12:23:25.874Z,49
2023-02-16T12:39:00.350Z,50.3
2023-02-16T12:54:34.836Z,51.5
2023-02-16T13:10:09.359Z,47.8
2023-02-16T13:25:44.670Z,48.3
2023-02-16T13:41:19.402Z,49
2023-02-16T13:56:53.918Z,47.8
2023-02-16T14:12:28.524Z,48.8
2023-02-16T14:28:03.065Z,47.7
2023-02-16T14:43:37.649Z,41.8
2023-02-16T14:59:12.111Z,43
2023-02-16T15:14:46.655Z,38.9
2023-02-16T15:30:21.175Z,42.5
2023-02-16T15:45:56.000Z,48.3
2023-02-16T16:01:33.344Z,54.1
2023-02-16T16:17:07.851Z,55.8
2023-02-16T16:32:44.755Z,54.2
2023-02-16T16:48:19.329Z,54.2
2023-02-16T17:03:53.859Z,57.2
2023-02-16T17:19:28.356Z,60
2023-02-16T17:35:02.761Z,62.3
2023-02-16T17:50:37.165Z,63.2
2023-02-16T18:06:11.667Z,64.9
2023-02-16T18:21:46.113Z,68
2023-02-16T18:37:20.527Z,70.9
2023-02-16T18:52:54.929Z,73.4
2023-02-16T19:08:29.129Z,75.5
2023-02-16T19:24:03.526Z,75
2023-02-16T19:39:37.915Z,75
2023-02-16T19:55:12.869Z,76.5
2023-02-16T20:10:47.346Z,78.3
2023-02-16T20:26:21.745Z,79.5
2023-02-16T20:41:56.192Z,80.3
2023-02-16T20:57:30.590Z,80.8
2023-02-16T21:13:04.976Z,81.2
2023-02-16T21:28:39.334Z,81.7
2023-02-16T21:44:13.944Z,84.9
2023-02-16T21:59:48.317Z,81.1
2023-02-16T22:15:22.806Z,81
2023-02-16T22:30:57.363Z,81.1
2023-02-16T22:46:32.330Z,81
2023-02-16T23:02:06.756Z,81.3
2023-02-16T23:17:41.160Z,79.7
2023-02-16T23:33:15.582Z,78.1
2023-02-16T23:48:50.014Z,77.2
